Time,TemperatureF,DewpointF,PressureIn,WindDirection,WindDirectionDegrees,WindSpeedMPH,WindSpeedGustMPH,Humidity,HourlyPrecipIn,Conditions,Clouds,dailyrainin,SoftwareType,DateUTC
2013-04-29 00:04:00,48.5,48.0,30.05,NNE,20,1.0,4.0,97,0.00,,,0.00,weatherlink.com 1.10,2013-04-29 04:04:00,
2013-04-29 00:19:00,48.6,48.0,30.05,WSW,255,0.0,2.0,96,0.00,,,0.00,weatherlink.com 1.10,2013-04-29 04:19:00,
2013-04-29 00:34:00,48.5,48.0,30.05,NNE,22,0.0,3.0,97,0.00,,,0.00,weatherlink.com 1.10,2013-04-29 04:34:00,
2013-04-29 00:49:00,48.2,48.0,30.05,ENE,57,0.0,6.0,98,0.01,,,0.01,weatherlink.com 1.10,2013-04-29 04:49:00,
2013-04-29 01:04:00,48.2,48.0,30.05,ENE,57,2.0,2.0,98,0.01,,,0.01,weatherlink.com 1.10,2013-04-29 05:04:00,
2013-04-29 01:19:00,48.1,48.0,30.06,ENE,57,0.0,3.0,98,0.01,,,0.01,weatherlink.com 1.10,2013-04-29 05:19:00,
2013-04-29 01:34:00,48.1,48.0,30.05,ENE,57,0.0,1.0,98,0.01,,,0.01,weatherlink.com 1.10,2013-04-29 05:34:00,
2013-04-29 01:49:00,48.0,48.0,30.05,NE,44,0.0,4.0,98,0.00,,,0.01,weatherlink.com 1.10,2013-04-29 05:49:00,
2013-04-29 02:04:00,48.0,48.0,30.04,NE,56,0.0,4.0,99,0.00,,,0.01,weatherlink.com 1.10,2013-04-29 06:04:00,
2013-04-29 02:19:00,47.9,48.0,30.04,NE,53,0.0,2.0,99,0.00,,,0.01,weatherlink.com 1.10,2013-04-29 06:19:00,
2013-04-29 02:34:00,47.8,48.0,30.04,WNW,286,0.0,4.0,99,0.00,,,0.01,weatherlink.com 1.10,2013-04-29 06:34:00,
2013-04-29 02:49:00,47.8,48.0,30.04,NW,309,2.0,5.0,99,0.00,,,0.01,weatherlink.com 1.10,2013-04-29 06:49:00,
2013-04-29 03:04:00,47.6,47.0,30.04,SW,234,3.0,7.0,99,0.00,,,0.01,weatherlink.com 1.10,2013-04-29 07:04:00,
2013-04-29 03:19:00,47.5,47.0,30.03,NE,43,0.0,3.0,99,0.00,,,0.01,weatherlink.com 1.10,2013-04-29 07:19:00,
2013-04-29 03:34:00,47.5,47.0,30.02,SSE,157,0.0,3.0,99,0.00,,,0.01,weatherlink.com 1.10,2013-04-29 07:34:00,
2013-04-29 03:49:00,47.4,47.0,30.02,SSE,157,0.0,3.0,99,0.00,,,0.01,weatherlink.com 1.10,2013-04-29 07:49:00,
2013-04-29 04:04:00,47.4,47.0,30.02,SSE,157,2.0,4.0,99,0.00,,,0.01,weatherlink.com 1.10,2013-04-29 08:04:00,
2013-04-29 04:19:00,47.4,47.0,30.02,SSE,157,0.0,2.0,99,0.00,,,0.01,weatherlink.com 1.10,2013-04-29 08:19:00,
2013-04-29 04:34:00,47.5,47.0,30.02,SW,227,2.0,4.0,99,0.00,,,0.01,weatherlink.com 1.10,2013-04-29 08:34:00,
2013-04-29 04:49:00,47.6,47.0,30.01,SSW,212,2.0,3.0,99,0.00,,,0.01,weatherlink.com 1.10,2013-04-29 08:49:00,
2013-04-29 05:04:00,47.6,47.0,30.02,NNW,329,0.0,3.0,99,0.00,,,0.01,weatherlink.com 1.10,2013-04-29 09:04:00,
2013-04-29 05:19:00,47.6,47.0,30.02,SSW,207,2.0,5.0,99,0.00,,,0.01,weatherlink.com 1.10,2013-04-29 09:19:00,
2013-04-29 05:34:00,47.5,47.0,30.02,NNW,333,2.0,6.0,99,0.00,,,0.01,weatherlink.com 1.10,2013-04-29 09:34:00,
2013-04-29 05:49:00,47.3,47.0,30.03,NNE,17,0.0,4.0,99,0.00,,,0.01,weatherlink.com 1.10,2013-04-29 09:49:00,
2013-04-29 06:04:00,47.3,47.0,30.03,WSW,252,1.0,3.0,99,0.00,,,0.01,weatherlink.com 1.10,2013-04-29 10:04:00,
2013-04-29 06:19:00,47.4,47.0,30.03,NW,306,0.0,3.0,99,0.00,,,0.01,weatherlink.com 1.10,2013-04-29 10:19:00,
2013-04-29 06:34:00,47.7,48.0,30.04,SSW,202,2.0,6.0,99,0.00,,,0.01,weatherlink.com 1.10,2013-04-29 10:34:00,
2013-04-29 06:49:00,48.0,48.0,30.04,SSW,202,0.0,6.0,99,0.00,,,0.01,weatherlink.com 1.10,2013-04-29 10:49:00,
2013-04-29 06:55:00,48.1,47.8,30.04,SW,229,1.0,2.0,99,0.00,,,0.01,Wunderground v.1.15,2013-04-29 10:55:00,
2013-04-29 07:00:00,48.2,47.9,30.04,SW,219,2.0,2.0,99,0.00,,,0.01,Wunderground v.1.15,2013-04-29 11:00:00,
2013-04-29 07:06:00,48.2,48.0,30.04,SW,215,0.0,6.0,99,0.00,,,0.01,weatherlink.com 1.10,2013-04-29 11:06:00,
2013-04-29 07:15:00,48.2,47.9,30.04,SW,217,1.0,2.0,99,0.00,,,0.01,Wunderground v.1.15,2013-04-29 11:15:00,
2013-04-29 07:20:00,48.2,48.0,30.04,WSW,241,0.0,3.0,99,0.00,,,0.01,weatherlink.com 1.10,2013-04-29 11:20:00,
2013-04-29 07:25:00,48.3,48.0,30.04,WSW,241,0.0,1.0,99,0.00,,,0.01,Wunderground v.1.15,2013-04-29 11:25:00,
2013-04-29 07:35:00,48.6,48.3,30.05,SW,227,1.0,1.0,99,0.00,,,0.01,Wunderground v.1.15,2013-04-29 11:35:00,
2013-04-29 07:40:00,48.6,48.3,30.05,SW,227,1.0,1.0,99,0.00,,,0.01,Wunderground v.1.15,2013-04-29 11:40:00,
2013-04-29 07:45:00,48.2,47.9,30.05,SW,227,1.0,1.0,99,0.00,,,0.01,Wunderground v.1.15,2013-04-29 11:45:00,
2013-04-29 07:51:00,48.2,48.0,30.04,SW,227,1.0,2.0,99,0.00,,,0.01,weatherlink.com 1.10,2013-04-29 11:51:00,
2013-04-29 08:00:00,48.1,47.8,30.05,SW,227,0.0,0.0,99,0.00,,,0.01,Wunderground v.1.15,2013-04-29 12:00:00,
2013-04-29 08:06:00,48.2,48.0,30.05,SW,227,0.0,1.0,99,0.00,,,0.01,weatherlink.com 1.10,2013-04-29 12:06:00,
2013-04-29 08:15:00,48.8,48.8,30.05,SW,227,0.0,0.0,100,0.00,,,0.01,Wunderground v.1.15,2013-04-29 12:15:00,
2013-04-29 08:20:00,49.0,48.7,30.05,SW,228,0.0,1.0,99,0.00,,,0.01,Wunderground v.1.15,2013-04-29 12:20:00,
2013-04-29 08:25:00,49.2,48.9,30.05,SW,228,0.0,1.0,99,0.00,,,0.01,Wunderground v.1.15,2013-04-29 12:25:00,
2013-04-29 08:35:00,49.1,48.8,30.05,SW,228,0.0,1.0,99,0.00,,,0.01,Wunderground v.1.15,2013-04-29 12:35:00,
2013-04-29 08:45:00,49.0,48.7,30.05,SW,228,0.0,0.0,99,0.00,,,0.01,Wunderground v.1.15,2013-04-29 12:45:00,
2013-04-29 08:50:00,49.0,48.7,30.05,SW,228,0.0,0.0,99,0.00,,,0.01,Wunderground v.1.15,2013-04-29 12:50:00,
2013-04-29 08:55:00,49.0,48.7,30.05,SW,228,0.0,0.0,99,0.00,,,0.01,Wunderground v.1.15,2013-04-29 12:55:00,
2013-04-29 09:05:00,49.4,49.1,30.05,SW,228,0.0,0.0,99,0.00,,,0.01,Wunderground v.1.15,2013-04-29 13:05:00,
2013-04-29 09:10:00,49.5,49.2,30.05,SW,228,0.0,0.0,99,0.00,,,0.01,Wunderground v.1.15,2013-04-29 13:10:00,
2013-04-29 09:20:00,49.8,49.5,30.06,SW,228,0.0,0.0,99,0.00,,,0.01,Wunderground v.1.15,2013-04-29 13:20:00,
2013-04-29 09:30:00,49.7,49.4,30.06,SW,228,1.0,1.0,99,0.00,,,0.02,Wunderground v.1.15,2013-04-29 13:30:00,
2013-04-29 09:35:00,50.0,49.7,30.06,SW,228,1.0,1.0,99,0.00,,,0.02,Wunderground v.1.15,2013-04-29 13:35:00,
2013-04-29 09:40:00,50.3,50.0,30.05,SW,228,1.0,1.0,99,0.00,,,0.02,Wunderground v.1.15,2013-04-29 13:40:00,
2013-04-29 09:50:00,50.7,50.7,30.06,WNW,283,1.0,1.0,100,0.00,,,0.02,Wunderground v.1.15,2013-04-29 13:50:00,
2013-04-29 09:55:00,51.1,50.8,30.05,NW,317,1.0,1.0,99,0.00,,,0.02,Wunderground v.1.15,2013-04-29 13:55:00,
2013-04-29 10:00:00,51.4,51.1,30.05,NNW,332,1.0,1.0,99,0.00,,,0.02,Wunderground v.1.15,2013-04-29 14:00:00,
2013-04-29 10:08:00,51.8,52.0,30.05,NNW,332,0.0,2.0,99,0.01,,,0.02,weatherlink.com 1.10,2013-04-29 14:08:00,
2013-04-29 10:15:00,51.3,51.0,30.05,West,272,1.0,2.0,99,0.00,,,0.02,Wunderground v.1.15,2013-04-29 14:15:00,
2013-04-29 10:20:00,51.1,50.8,30.06,West,272,1.0,2.0,99,0.00,,,0.02,Wunderground v.1.15,2013-04-29 14:20:00,
2013-04-29 10:25:00,51.2,50.9,30.06,WNW,283,1.0,2.0,99,0.00,,,0.02,Wunderground v.1.15,2013-04-29 14:25:00,
2013-04-29 10:30:00,51.1,50.6,30.06,WNW,292,1.0,1.0,98,0.00,,,0.02,Wunderground v.1.15,2013-04-29 14:30:00,
2013-04-29 10:37:00,51.3,51.0,30.05,NW,323,3.0,3.0,97,0.00,,,0.02,weatherlink.com 1.10,2013-04-29 14:37:00,
2013-04-29 10:45:00,51.6,50.5,30.06,NW,315,2.0,3.0,96,0.00,,,0.02,Wunderground v.1.15,2013-04-29 14:45:00,
2013-04-29 10:50:00,52.0,50.9,30.06,NW,311,2.0,2.0,96,0.00,,,0.02,Wunderground v.1.15,2013-04-29 14:50:00,
2013-04-29 10:55:00,52.5,51.4,30.06,West,272,2.0,2.0,96,0.00,,,0.02,Wunderground v.1.15,2013-04-29 14:55:00,
2013-04-29 11:00:00,53.3,51.9,30.05,WNW,292,2.0,2.0,95,0.00,,,0.02,Wunderground v.1.15,2013-04-29 15:00:00,
2013-04-29 11:08:00,53.4,51.0,30.05,WNW,303,0.0,3.0,91,0.00,,,0.02,weatherlink.com 1.10,2013-04-29 15:08:00,
2013-04-29 11:15:00,53.6,51.6,30.05,NW,315,1.0,2.0,93,0.00,,,0.02,Wunderground v.1.15,2013-04-29 15:15:00,
2013-04-29 11:20:00,54.1,52.1,30.05,WSW,244,1.0,5.0,93,0.00,,,0.02,Wunderground v.1.15,2013-04-29 15:20:00,
2013-04-29 11:30:00,54.5,51.3,30.05,NW,318,3.0,3.0,89,0.00,,,0.02,Wunderground v.1.15,2013-04-29 15:30:00,
2013-04-29 11:38:00,54.7,51.0,30.05,North,355,2.0,6.0,88,0.00,,,0.02,weatherlink.com 1.10,2013-04-29 15:38:00,
2013-04-29 11:45:00,54.8,51.3,30.05,WNW,287,2.0,2.0,88,0.00,,,0.02,Wunderground v.1.15,2013-04-29 15:45:00,
2013-04-29 11:50:00,55.2,51.4,30.06,WSW,246,2.0,3.0,87,0.00,,,0.02,Wunderground v.1.15,2013-04-29 15:50:00,
2013-04-29 12:00:00,56.1,50.7,30.05,NNW,335,2.0,2.0,82,0.00,,,0.02,Wunderground v.1.15,2013-04-29 16:00:00,
2013-04-29 12:09:00,56.0,51.0,30.05,WSW,256,3.0,6.0,84,0.00,,,0.02,weatherlink.com 1.10,2013-04-29 16:09:00,
2013-04-29 12:15:00,56.4,49.6,30.05,SW,234,2.0,3.0,78,0.00,,,0.02,Wunderground v.1.15,2013-04-29 16:15:00,
2013-04-29 12:25:00,56.4,50.0,30.05,NW,304,0.0,7.0,78,0.00,,,0.02,weatherlink.com 1.10,2013-04-29 16:25:00,
2013-04-29 12:30:00,57.1,50.6,30.05,West,277,2.0,2.0,79,0.00,,,0.02,Wunderground v.1.15,2013-04-29 16:30:00,
2013-04-29 12:39:00,57.9,49.0,30.05,WSW,243,0.0,8.0,73,0.00,,,0.02,weatherlink.com 1.10,2013-04-29 16:39:00,
2013-04-29 12:45:00,58.5,49.1,30.04,SW,236,3.0,3.0,71,0.00,,,0.02,Wunderground v.1.15,2013-04-29 16:45:00,
2013-04-29 12:54:00,58.7,49.0,30.04,West,267,4.0,5.0,70,0.00,,,0.02,weatherlink.com 1.10,2013-04-29 16:54:00,
2013-04-29 13:00:00,59.3,50.6,30.04,SW,236,3.0,3.0,73,0.00,,,0.02,Wunderground v.1.15,2013-04-29 17:00:00,
2013-04-29 13:09:00,59.8,47.0,30.03,NW,325,2.0,6.0,64,0.00,,,0.02,weatherlink.com 1.10,2013-04-29 17:09:00,
2013-04-29 13:15:00,59.8,49.2,30.03,SSW,213,2.0,3.0,68,0.00,,,0.02,Wunderground v.1.15,2013-04-29 17:15:00,
2013-04-29 13:20:00,60.2,49.6,30.03,NW,314,2.0,2.0,68,0.00,,,0.02,Wunderground v.1.15,2013-04-29 17:20:00,
2013-04-29 13:30:00,61.4,49.9,30.03,NW,309,2.0,2.0,66,0.00,,,0.02,Wunderground v.1.15,2013-04-29 17:30:00,
2013-04-29 13:35:00,61.8,47.8,30.03,NNW,338,2.0,4.0,60,0.00,,,0.02,Wunderground v.1.15,2013-04-29 17:35:00,
2013-04-29 13:40:00,61.3,48.0,30.03,NW,321,3.0,5.0,61,0.00,,,0.02,weatherlink.com 1.10,2013-04-29 17:40:00,
2013-04-29 13:50:00,60.7,48.4,30.03,WSW,246,2.0,2.0,64,0.00,,,0.02,Wunderground v.1.15,2013-04-29 17:50:00,
2013-04-29 14:00:00,61.1,49.2,30.02,NNW,332,1.0,1.0,65,0.00,,,0.02,Wunderground v.1.15,2013-04-29 18:00:00,
2013-04-29 14:10:00,61.0,48.0,30.02,WSW,248,1.0,5.0,63,0.00,,,0.02,weatherlink.com 1.10,2013-04-29 18:10:00,
2013-04-29 14:15:00,61.1,46.7,30.02,NNW,330,1.0,1.0,59,0.00,,,0.02,Wunderground v.1.15,2013-04-29 18:15:00,
2013-04-29 14:20:00,60.8,46.8,30.02,ENE,57,1.0,1.0,60,0.00,,,0.02,Wunderground v.1.15,2013-04-29 18:20:00,
2013-04-29 14:26:00,60.8,48.0,30.01,West,269,3.0,4.0,63,0.00,,,0.02,weatherlink.com 1.10,2013-04-29 18:26:00,
2013-04-29 14:35:00,61.3,49.0,30.01,NW,317,1.0,1.0,64,0.00,,,0.02,Wunderground v.1.15,2013-04-29 18:35:00,
2013-04-29 14:40:00,61.5,47.9,30.01,WNW,290,2.0,2.0,61,0.00,,,0.02,Wunderground v.1.15,2013-04-29 18:40:00,
2013-04-29 14:45:00,61.3,48.2,30.01,WNW,299,2.0,3.0,62,0.00,,,0.02,Wunderground v.1.15,2013-04-29 18:45:00,
2013-04-29 14:50:00,61.8,48.6,30.01,WNW,293,2.0,2.0,62,0.00,,,0.02,Wunderground v.1.15,2013-04-29 18:50:00,
2013-04-29 14:56:00,61.6,48.0,30.00,North,11,1.0,5.0,61,0.00,,,0.02,weatherlink.com 1.10,2013-04-29 18:56:00,
2013-04-29 15:05:00,62.5,48.0,30.00,NNW,340,2.0,2.0,59,0.00,,,0.02,Wunderground v.1.15,2013-04-29 19:05:00,
2013-04-29 15:10:00,62.7,50.3,30.00,NNW,339,2.0,2.0,64,0.00,,,0.02,Wunderground v.1.15,2013-04-29 19:10:00,
2013-04-29 15:20:00,64.0,48.9,29.99,WNW,288,2.0,3.0,58,0.00,,,0.02,Wunderground v.1.15,2013-04-29 19:20:00,
2013-04-29 15:25:00,64.0,47.5,29.99,NNE,22,3.0,3.0,55,0.00,,,0.02,Wunderground v.1.15,2013-04-29 19:25:00,
2013-04-29 15:35:00,64.6,48.5,29.99,West,275,2.0,4.0,56,0.00,,,0.02,Wunderground v.1.15,2013-04-29 19:35:00,
2013-04-29 15:40:00,64.5,48.0,29.98,NNW,331,2.0,3.0,55,0.00,,,0.02,Wunderground v.1.15,2013-04-29 19:40:00,
2013-04-29 15:45:00,63.8,47.3,29.98,NW,313,3.0,3.0,55,0.00,,,0.02,Wunderground v.1.15,2013-04-29 19:45:00,
2013-04-29 15:55:00,64.5,46.5,29.98,NNW,336,2.0,3.0,52,0.00,,,0.02,Wunderground v.1.15,2013-04-29 19:55:00,
2013-04-29 16:00:00,63.8,47.8,29.98,WNW,286,2.0,2.0,56,0.00,,,0.02,Wunderground v.1.15,2013-04-29 20:00:00,
2013-04-29 16:10:00,63.9,47.9,29.97,SW,225,2.0,2.0,56,0.00,,,0.02,Wunderground v.1.15,2013-04-29 20:10:00,
2013-04-29 16:15:00,63.8,46.8,29.97,North,9,1.0,2.0,54,0.00,,,0.02,Wunderground v.1.15,2013-04-29 20:15:00,
2013-04-29 16:25:00,65.2,47.1,29.96,WNW,300,2.0,5.0,52,0.00,,,0.02,Wunderground v.1.15,2013-04-29 20:25:00,
2013-04-29 16:30:00,66.4,48.7,29.96,North,5,2.0,2.0,53,0.00,,,0.02,Wunderground v.1.15,2013-04-29 20:30:00,
2013-04-29 16:40:00,67.9,49.6,29.95,West,266,2.0,3.0,52,0.00,,,0.02,Wunderground v.1.15,2013-04-29 20:40:00,
2013-04-29 16:45:00,68.0,47.0,29.95,West,273,2.0,3.0,47,0.00,,,0.02,Wunderground v.1.15,2013-04-29 20:45:00,
2013-04-29 16:50:00,67.5,46.0,29.95,WSW,244,3.0,3.0,46,0.00,,,0.02,Wunderground v.1.15,2013-04-29 20:50:00,
2013-04-29 16:57:00,66.7,47.0,29.95,SW,215,4.0,8.0,49,0.00,,,0.02,weatherlink.com 1.10,2013-04-29 20:57:00,
2013-04-29 17:05:00,66.4,45.0,29.95,SSW,208,3.0,4.0,46,0.00,,,0.02,Wunderground v.1.15,2013-04-29 21:05:00,
2013-04-29 17:12:00,67.4,47.0,29.95,SW,227,4.0,8.0,49,0.00,,,0.02,weatherlink.com 1.10,2013-04-29 21:12:00,
2013-04-29 17:20:00,68.4,45.0,29.95,WSW,244,3.0,6.0,43,0.00,,,0.02,Wunderground v.1.15,2013-04-29 21:20:00,
2013-04-29 17:25:00,67.2,46.3,29.94,NNW,329,4.0,6.0,47,0.00,,,0.02,Wunderground v.1.15,2013-04-29 21:25:00,
2013-04-29 17:35:00,67.7,46.7,29.94,SSW,201,3.0,6.0,47,0.00,,,0.02,Wunderground v.1.15,2013-04-29 21:35:00,
2013-04-29 17:44:00,66.9,46.0,29.94,SW,221,1.0,7.0,47,0.00,,,0.02,weatherlink.com 1.10,2013-04-29 21:44:00,
2013-04-29 17:50:00,65.9,43.9,29.94,WSW,257,3.0,3.0,45,0.00,,,0.02,Wunderground v.1.15,2013-04-29 21:50:00,
2013-04-29 17:55:00,65.1,45.5,29.94,WNW,288,3.0,3.0,49,0.00,,,0.02,Wunderground v.1.15,2013-04-29 21:55:00,
2013-04-29 18:05:00,64.3,45.3,29.94,SSW,213,3.0,4.0,50,0.00,,,0.02,Wunderground v.1.15,2013-04-29 22:05:00,
2013-04-29 18:10:00,64.1,46.6,29.94,WSW,252,2.0,2.0,53,0.00,,,0.02,Wunderground v.1.15,2013-04-29 22:10:00,
2013-04-29 18:15:00,64.0,46.0,29.94,SW,234,2.0,2.0,52,0.00,,,0.02,Wunderground v.1.15,2013-04-29 22:15:00,
2013-04-29 18:25:00,63.6,45.6,29.95,NNW,335,1.0,2.0,52,0.00,,,0.02,Wunderground v.1.15,2013-04-29 22:25:00,
2013-04-29 18:30:00,63.4,44.9,29.94,SW,236,1.0,1.0,51,0.00,,,0.02,Wunderground v.1.15,2013-04-29 22:30:00,
2013-04-29 18:40:00,63.2,47.7,29.94,West,273,1.0,2.0,57,0.00,,,0.02,Wunderground v.1.15,2013-04-29 22:40:00,
2013-04-29 18:50:00,63.2,46.3,29.94,SW,235,2.0,4.0,54,0.00,,,0.02,Wunderground v.1.15,2013-04-29 22:50:00,
2013-04-29 18:55:00,62.8,46.9,29.94,WSW,246,3.0,4.0,56,0.00,,,0.02,Wunderground v.1.15,2013-04-29 22:55:00,
2013-04-29 19:05:00,62.5,47.5,29.94,WSW,250,2.0,3.0,58,0.00,,,0.02,Wunderground v.1.15,2013-04-29 23:05:00,
2013-04-29 19:14:00,62.2,47.0,29.94,West,259,5.0,6.0,59,0.00,,,0.02,weatherlink.com 1.10,2013-04-29 23:14:00,
2013-04-29 19:20:00,61.8,48.2,29.94,SW,236,4.0,4.0,61,0.00,,,0.02,Wunderground v.1.15,2013-04-29 23:20:00,
2013-04-29 19:29:00,61.6,50.0,29.94,WNW,296,3.0,9.0,65,0.00,,,0.02,weatherlink.com 1.10,2013-04-29 23:29:00,
2013-04-29 19:35:00,62.0,50.1,29.94,WNW,297,4.0,4.0,65,0.00,,,0.02,Wunderground v.1.15,2013-04-29 23:35:00,
2013-04-29 19:40:00,62.3,51.2,29.94,NW,321,3.0,3.0,67,0.00,,,0.02,Wunderground v.1.15,2013-04-29 23:40:00,
2013-04-29 19:45:00,62.5,51.0,29.94,NNW,338,3.0,3.0,66,0.00,,,0.02,Wunderground v.1.15,2013-04-29 23:45:00,
2013-04-29 19:50:00,62.4,50.5,29.94,WSW,258,3.0,3.0,65,0.00,,,0.02,Wunderground v.1.15,2013-04-29 23:50:00,
2013-04-29 19:59:00,61.7,51.0,29.95,NW,319,2.0,8.0,67,0.00,,,0.02,weatherlink.com 1.10,2013-04-29 23:59:00,
2013-04-29 20:05:00,61.1,50.5,29.95,West,276,3.0,3.0,68,0.00,,,0.02,Wunderground v.1.15,2013-04-30 00:05:00,
2013-04-29 20:10:00,60.5,49.9,29.95,WSW,250,3.0,3.0,68,0.00,,,0.02,Wunderground v.1.15,2013-04-30 00:10:00,
2013-04-29 20:16:00,59.8,50.0,29.95,West,268,4.0,6.0,69,0.00,,,0.02,weatherlink.com 1.10,2013-04-30 00:16:00,
2013-04-29 20:25:00,58.9,49.9,29.96,West,263,2.0,4.0,72,0.00,,,0.02,Wunderground v.1.15,2013-04-30 00:25:00,
2013-04-29 20:35:00,58.2,50.0,29.96,WNW,296,3.0,3.0,74,0.00,,,0.02,Wunderground v.1.15,2013-04-30 00:35:00,
2013-04-29 20:40:00,57.9,50.0,29.96,WNW,300,3.0,3.0,75,0.00,,,0.02,Wunderground v.1.15,2013-04-30 00:40:00,
2013-04-29 20:50:00,57.4,49.9,29.96,West,260,2.0,2.0,76,0.00,,,0.02,Wunderground v.1.15,2013-04-30 00:50:00,
2013-04-29 21:00:00,57.0,50.0,29.97,West,267,3.0,4.0,77,0.00,,,0.02,weatherlink.com 1.10,2013-04-30 01:00:00,
2013-04-29 21:05:00,56.9,49.8,29.97,West,261,2.0,3.0,77,0.00,,,0.02,Wunderground v.1.15,2013-04-30 01:05:00,
2013-04-29 21:10:00,56.8,50.0,29.97,WSW,252,2.0,2.0,78,0.00,,,0.02,Wunderground v.1.15,2013-04-30 01:10:00,
2013-04-29 21:20:00,56.8,50.4,29.98,WSW,252,0.0,0.0,79,0.00,,,0.02,Wunderground v.1.15,2013-04-30 01:20:00,
2013-04-29 21:30:00,56.7,50.0,29.98,SW,217,3.0,5.0,79,0.00,,,0.02,weatherlink.com 1.10,2013-04-30 01:30:00,
2013-04-29 21:45:00,56.6,51.0,29.98,NE,36,4.0,5.0,82,0.00,,,0.02,weatherlink.com 1.10,2013-04-30 01:45:00,
2013-04-29 22:00:00,56.0,52.0,29.99,NNW,342,1.0,6.0,85,0.00,,,0.02,weatherlink.com 1.10,2013-04-30 02:00:00,
2013-04-29 22:15:00,55.7,52.0,30.00,SSE,159,2.0,4.0,86,0.00,,,0.02,weatherlink.com 1.10,2013-04-30 02:15:00,
2013-04-29 22:30:00,55.3,52.0,30.00,NE,55,1.0,3.0,87,0.00,,,0.02,weatherlink.com 1.10,2013-04-30 02:30:00,
2013-04-29 22:45:00,55.0,51.0,30.00,NE,44,1.0,3.0,87,0.00,,,0.02,weatherlink.com 1.10,2013-04-30 02:45:00,
2013-04-29 23:00:00,54.7,51.0,30.00,NNE,18,0.0,3.0,87,0.00,,,0.02,weatherlink.com 1.10,2013-04-30 03:00:00,
2013-04-29 23:15:00,54.6,51.0,30.00,NE,51,1.0,5.0,86,0.00,,,0.02,weatherlink.com 1.10,2013-04-30 03:15:00,
2013-04-29 23:30:00,54.5,50.0,29.99,South,182,1.0,6.0,85,0.00,,,0.02,weatherlink.com 1.10,2013-04-30 03:30:00,
2013-04-29 23:45:00,54.4,50.0,29.99,South,182,1.0,3.0,85,0.00,,,0.02,weatherlink.com 1.10,2013-04-30 03:45:00,